Hana — 2BCV4 — position and weather

sailwx.info

Track history (hours):
 
Tides and Currents Weather Stations Pressure Air Temp Water Temp Dewpoint Dewpoint Depression Visibility Wind Speed Wind Dir Waves Ship Positions

Hana

Last reported at 2015-Aug-31 15:25 UTC. Time now 2015-Aug-31 21:51 UTC.
Position N 39°06' E 001°30'.

Length 42 m; draft 2.7 m.

Type: Pleasure craft. MMSI: 235065022.

Date/timePositionNaut miles runAvg speedWind from/ knotsBaromVisibWave heightAir tempDewpointWater temp
2015-Aug-31 15:25N 39°06' E 001°30'2 2.4
2015-Aug-31 14:33N 39°08' E 001°32'1010.4
2015-Aug-31 13:33N 39°12' E 001°45'1010.2
2015-Aug-31 12:33N 39°16' E 001°57'1010.2
2015-Aug-31 11:33N 39°19' E 002°09'1010.4
2015-Aug-31 10:33N 39°23' E 002°21'1010.5
2015-Aug-31 09:33N 39°28' E 002°34'6 6.1
2015-Aug-31 08:31N 39°34' E 002°38'0 0.0
2015-Aug-31 07:31N 39°34' E 002°38'0 0.0
2015-Aug-31 06:31N 39°34' E 002°38'0 0.0
2015-Aug-31 05:31N 39°34' E 002°38'0 0.0
2015-Aug-31 04:31N 39°34' E 002°38'0 0.0
2015-Aug-31 03:31N 39°34' E 002°38'0 0.0
2015-Aug-31 02:31N 39°34' E 002°38'0 0.0
2015-Aug-31 01:31N 39°34' E 002°38'0 0.0
2015-Aug-31 00:31N 39°34' E 002°38'0 0.0
2015-Aug-30 23:31N 39°34' E 002°38'0 0.0
2015-Aug-30 22:31N 39°34' E 002°38'0 0.0
2015-Aug-30 21:31N 39°34' E 002°38'0 0.0
2015-Aug-30 20:31N 39°34' E 002°38'0 0.0
2015-Aug-30 19:31N 39°34' E 002°38'0 0.0
2015-Aug-30 18:31N 39°34' E 002°38'0 0.0
2015-Aug-30 17:31N 39°34' E 002°38'0 0.0
2015-Aug-30 16:31N 39°34' E 002°38'0 0.0
2015-Aug-30 15:33N 39°34' E 002°38'0 0.0
2015-Aug-30 14:33N 39°34' E 002°38'0 0.3
2015-Aug-30 13:33N 39°33' E 002°38'9 9.1
2015-Aug-30 12:33N 39°27' E 002°29'11 3.2
2015-Aug-30 09:08N 39°37' E 002°22'6 9.8
2015-Aug-30 08:33N 39°40' E 002°27'10 9.8
2015-Aug-30 07:33N 39°46' E 002°37'4 3.6
2015-Aug-30 06:33N 39°48' E 002°42'0 0.0
2015-Aug-30 05:33N 39°48' E 002°42'0 0.0
2015-Aug-30 04:33N 39°48' E 002°42'0 0.0
2015-Aug-30 03:33N 39°48' E 002°42'0 0.0
2015-Aug-30 02:33N 39°48' E 002°42'0 0.0
2015-Aug-30 01:33N 39°48' E 002°42'0 0.0
2015-Aug-30 00:33N 39°48' E 002°42'0 0.0
2015-Aug-29 23:33N 39°48' E 002°42'0 0.0
2015-Aug-29 22:33N 39°48' E 002°42'0 0.0
2015-Aug-29 21:33N 39°48' E 002°42'0 0.0
2015-Aug-29 20:33N 39°48' E 002°42'0 0.0
2015-Aug-29 19:33N 39°48' E 002°42'0 0.0
2015-Aug-29 18:33N 39°48' E 002°42'0 0.0
2015-Aug-29 17:33N 39°48' E 002°42'0 0.0
2015-Aug-29 16:33N 39°48' E 002°42'0 0.2
2015-Aug-29 15:33N 39°48' E 002°41'29 1.0
2015-Aug-28 10:33N 39°50' E 003°19'29 1.2
2015-Aug-27 10:32N 39°21' E 003°13'1010.2
2015-Aug-27 09:33N 39°16' E 003°02'5 4.9
2015-Aug-27 08:31N 39°20' E 002°59'0 0.0
2015-Aug-27 07:31N 39°20' E 002°59'0 0.0
2015-Aug-27 06:28N 39°20' E 002°59'0 0.0
2015-Aug-27 05:28N 39°20' E 002°59'0 0.0
2015-Aug-27 04:16N 39°20' E 002°59'0 0.0
2015-Aug-27 03:25N 39°20' E 002°59'0 0.0
2015-Aug-27 02:22N 39°20' E 002°59'0 0.0
2015-Aug-27 01:31N 39°20' E 002°59'0 0.0
2015-Aug-27 00:31N 39°20' E 002°59'0 0.0
2015-Aug-26 23:10N 39°20' E 002°59'0 0.0
2015-Aug-26 22:31N 39°20' E 002°59'0 0.0
2015-Aug-26 20:28N 39°20' E 002°59'0 0.0
2015-Aug-26 19:31N 39°20' E 002°59'0 0.0
2015-Aug-26 18:28N 39°20' E 002°59'0 0.0
2015-Aug-26 17:31N 39°20' E 002°59'0 0.0
2015-Aug-26 16:31N 39°20' E 002°59'0 0.0
2015-Aug-26 15:31N 39°20' E 002°59'0 0.0
2015-Aug-26 14:31N 39°20' E 002°59'0 0.0
2015-Aug-26 13:31N 39°20' E 002°59'0 0.0
2015-Aug-26 12:34N 39°20' E 002°59'7 7.1
2015-Aug-26 11:34N 39°21' E 002°50'1010.2
2015-Aug-26 10:33N 39°29' E 002°41'6 5.5
2015-Aug-26 09:31N 39°34' E 002°38'0 0.0
2015-Aug-26 08:33N 39°34' E 002°38'0 0.0
2015-Aug-26 07:33N 39°34' E 002°38'0 0.0
2015-Aug-26 06:33N 39°34' E 002°38'0 0.0
2015-Aug-26 05:33N 39°34' E 002°38'0 0.0
2015-Aug-26 04:33N 39°34' E 002°38'0 0.0
2015-Aug-26 03:33N 39°34' E 002°38'0 0.0
2015-Aug-26 02:33N 39°34' E 002°38'0 0.0
2015-Aug-26 01:33N 39°34' E 002°38'0 0.0
2015-Aug-26 00:33N 39°34' E 002°38'0 0.0
2015-Aug-25 23:33N 39°34' E 002°38'0 0.0
2015-Aug-25 22:33N 39°34' E 002°38'0 0.0
2015-Aug-25 21:33N 39°34' E 002°38'1 1.5
2015-Aug-25 20:33N 39°32' E 002°38'9 8.9
2015-Aug-25 19:33N 39°29' E 002°27'4 2.7
2015-Aug-25 18:14N 39°32' E 002°25'0 0.1
2015-Aug-25 16:33N 39°32' E 002°25'6 5.9
2015-Aug-25 15:32N 39°37' E 002°22'1010.0
2015-Aug-25 14:29N 39°44' E 002°33'7 8.1
2015-Aug-25 13:34N 39°48' E 002°41'1 0.4
2015-Aug-25 12:19N 39°48' E 002°42'0 0.0
2015-Aug-25 11:25N 39°48' E 002°42'0 0.0
2015-Aug-25 10:31N 39°48' E 002°42'0 0.0
2015-Aug-25 09:07N 39°48' E 002°42'0 0.0
2015-Aug-25 08:31N 39°48' E 002°42'0 0.0
2015-Aug-25 07:31N 39°48' E 002°42'0 0.0
2015-Aug-25 06:31N 39°48' E 002°42'0 0.0
2015-Aug-25 05:31N 39°48' E 002°42'0 0.0
2015-Aug-25 04:31N 39°48' E 002°42'0 0.0
2015-Aug-25 03:28N 39°48' E 002°42'0 0.0
2015-Aug-25 02:28N 39°48' E 002°42'0 0.0
2015-Aug-25 01:28N 39°48' E 002°42'0 0.0
2015-Aug-25 00:31N 39°48' E 002°42'0 0.0
2015-Aug-24 23:31N 39°48' E 002°42'0 0.0
2015-Aug-24 22:28N 39°48' E 002°42'0 0.0
2015-Aug-24 21:31N 39°48' E 002°42'0 0.0
2015-Aug-24 20:31N 39°48' E 002°42'0 0.0
2015-Aug-24 19:31N 39°48' E 002°42'0 0.0
2015-Aug-24 18:31N 39°48' E 002°42'0 0.0
2015-Aug-24 17:33N 39°48' E 002°42'0 0.4
2015-Aug-24 16:31N 39°48' E 002°41'0 0.0
2015-Aug-24 15:31N 39°48' E 002°41'0 0.0
2015-Aug-24 14:31N 39°48' E 002°41'0 0.0
2015-Aug-24 13:31N 39°48' E 002°41'0 0.0
2015-Aug-24 12:31N 39°48' E 002°41'0 0.0
2015-Aug-24 11:31N 39°48' E 002°41'0 0.0
2015-Aug-24 10:25N 39°48' E 002°41'0 0.0
2015-Aug-24 09:31N 39°48' E 002°41'0 0.0
2015-Aug-24 08:25N 39°48' E 002°41'0 0.0
2015-Aug-24 07:31N 39°48' E 002°41'0 0.0
2015-Aug-24 06:31N 39°48' E 002°41'0 0.0
2015-Aug-24 05:28N 39°48' E 002°41'0 0.0
2015-Aug-24 04:25N 39°48' E 002°41'0 0.0
2015-Aug-24 03:31N 39°48' E 002°41'0 0.0
2015-Aug-24 02:31N 39°48' E 002°41'0 0.0
2015-Aug-24 01:28N 39°48' E 002°41'0 0.0
2015-Aug-24 00:31N 39°48' E 002°41'0 0.0
2015-Aug-23 23:31N 39°48' E 002°41'0 0.0
2015-Aug-23 22:31N 39°48' E 002°41'0 0.0
2015-Aug-23 21:31N 39°48' E 002°41'0 0.0
2015-Aug-23 20:31N 39°48' E 002°41'0 0.1
2015-Aug-23 19:22N 39°48' E 002°41'0 0.2
2015-Aug-23 18:28N 39°48' E 002°41'0 0.0
2015-Aug-23 17:28N 39°48' E 002°41'1 1.0
2015-Aug-23 16:32N 39°49' E 002°42'5 1.7
2015-Aug-23 13:34N 39°46' E 002°37'1210.2
2015-Aug-23 12:23N 39°39' E 002°25'6 7.5
2015-Aug-23 11:33N 39°33' E 002°22'0 0.1
2015-Aug-23 10:31N 39°32' E 002°22'0 0.0
2015-Aug-23 08:31N 39°32' E 002°22'0 0.0
2015-Aug-23 07:07N 39°32' E 002°22'0 0.0
2015-Aug-23 06:07N 39°32' E 002°22'0 0.0
2015-Aug-23 05:13N 39°32' E 002°22'0 0.0
2015-Aug-23 03:07N 39°32' E 002°22'0 0.0
2015-Aug-23 02:20N 39°32' E 002°22'0 0.0
2015-Aug-22 22:25N 39°32' E 002°22'0 0.0
2015-Aug-22 20:25N 39°32' E 002°22'0 0.0
2015-Aug-22 17:25N 39°32' E 002°22'2 2.1
2015-Aug-22 16:32N 39°31' E 002°23'8 8.5
2015-Aug-22 15:33N 39°29' E 002°34'5 5.2
2015-Aug-22 14:31N 39°34' E 002°38'0 0.0
2015-Aug-22 13:31N 39°34' E 002°38'0 0.0
2015-Aug-22 12:31N 39°34' E 002°38'0 0.0
2015-Aug-22 11:31N 39°34' E 002°38'0 0.0
2015-Aug-22 10:31N 39°34' E 002°38'0 0.0
2015-Aug-22 09:31N 39°34' E 002°38'0 0.0
2015-Aug-22 08:31N 39°34' E 002°38'0 0.0
2015-Aug-22 07:31N 39°34' E 002°38'0 0.0
2015-Aug-22 06:31N 39°34' E 002°38'0 0.0
2015-Aug-22 05:31N 39°34' E 002°38'0 0.0
2015-Aug-22 04:31N 39°34' E 002°38'0 0.0
2015-Aug-22 03:31N 39°34' E 002°38'0 0.0
2015-Aug-22 02:31N 39°34' E 002°38'0 0.0
2015-Aug-22 01:31N 39°34' E 002°38'0 0.0
2015-Aug-22 00:31N 39°34' E 002°38'0 0.0
2015-Aug-21 23:31N 39°34' E 002°38'0 0.0
2015-Aug-21 22:31N 39°34' E 002°38'0 0.0
2015-Aug-21 21:31N 39°34' E 002°38'0 0.0
2015-Aug-21 20:31N 39°34' E 002°38'0 0.0
2015-Aug-21 19:31N 39°34' E 002°38'0 0.0
2015-Aug-21 18:31N 39°34' E 002°38'0 0.0
2015-Aug-21 17:31N 39°34' E 002°38'0 0.0
2015-Aug-21 16:31N 39°34' E 002°38'0 0.0
2015-Aug-21 15:31N 39°34' E 002°38'  
Track history (hours):
 
Tides and Currents Weather Stations Pressure Air Temp Water Temp Dewpoint Dewpoint Depression Visibility Wind Speed Wind Dir Waves Ship Positions

Hana

Last reported at 2015-Aug-31 15:25 UTC. Time now 2015-Aug-31 21:51 UTC.
Position N 39°06' E 001°30'.

Length 42 m; draft 2.7 m.

Type: Pleasure craft. MMSI: 235065022.

Date/timePositionNaut miles runAvg speedWind from/ knotsBaromVisibWave heightAir tempDewpointWater temp
2015-Aug-31 15:25N 39°06' E 001°30'2 2.4
2015-Aug-31 14:33N 39°08' E 001°32'1010.4
2015-Aug-31 13:33N 39°12' E 001°45'1010.2
2015-Aug-31 12:33N 39°16' E 001°57'1010.2
2015-Aug-31 11:33N 39°19' E 002°09'1010.4
2015-Aug-31 10:33N 39°23' E 002°21'1010.5
2015-Aug-31 09:33N 39°28' E 002°34'6 6.1
2015-Aug-31 08:31N 39°34' E 002°38'0 0.0
2015-Aug-31 07:31N 39°34' E 002°38'0 0.0
2015-Aug-31 06:31N 39°34' E 002°38'0 0.0
2015-Aug-31 05:31N 39°34' E 002°38'0 0.0
2015-Aug-31 04:31N 39°34' E 002°38'0 0.0
2015-Aug-31 03:31N 39°34' E 002°38'0 0.0
2015-Aug-31 02:31N 39°34' E 002°38'0 0.0
2015-Aug-31 01:31N 39°34' E 002°38'0 0.0
2015-Aug-31 00:31N 39°34' E 002°38'0 0.0
2015-Aug-30 23:31N 39°34' E 002°38'0 0.0
2015-Aug-30 22:31N 39°34' E 002°38'0 0.0
2015-Aug-30 21:31N 39°34' E 002°38'0 0.0
2015-Aug-30 20:31N 39°34' E 002°38'0 0.0
2015-Aug-30 19:31N 39°34' E 002°38'0 0.0
2015-Aug-30 18:31N 39°34' E 002°38'0 0.0
2015-Aug-30 17:31N 39°34' E 002°38'0 0.0
2015-Aug-30 16:31N 39°34' E 002°38'0 0.0
2015-Aug-30 15:33N 39°34' E 002°38'0 0.0
2015-Aug-30 14:33N 39°34' E 002°38'0 0.3
2015-Aug-30 13:33N 39°33' E 002°38'9 9.1
2015-Aug-30 12:33N 39°27' E 002°29'11 3.2
2015-Aug-30 09:08N 39°37' E 002°22'6 9.8
2015-Aug-30 08:33N 39°40' E 002°27'10 9.8
2015-Aug-30 07:33N 39°46' E 002°37'4 3.6
2015-Aug-30 06:33N 39°48' E 002°42'0 0.0
2015-Aug-30 05:33N 39°48' E 002°42'0 0.0
2015-Aug-30 04:33N 39°48' E 002°42'0 0.0
2015-Aug-30 03:33N 39°48' E 002°42'0 0.0
2015-Aug-30 02:33N 39°48' E 002°42'0 0.0
2015-Aug-30 01:33N 39°48' E 002°42'0 0.0
2015-Aug-30 00:33N 39°48' E 002°42'0 0.0
2015-Aug-29 23:33N 39°48' E 002°42'0 0.0
2015-Aug-29 22:33N 39°48' E 002°42'0 0.0
2015-Aug-29 21:33N 39°48' E 002°42'0 0.0
2015-Aug-29 20:33N 39°48' E 002°42'0 0.0
2015-Aug-29 19:33N 39°48' E 002°42'0 0.0
2015-Aug-29 18:33N 39°48' E 002°42'0 0.0
2015-Aug-29 17:33N 39°48' E 002°42'0 0.0
2015-Aug-29 16:33N 39°48' E 002°42'0 0.2
2015-Aug-29 15:33N 39°48' E 002°41'29 1.0
2015-Aug-28 10:33N 39°50' E 003°19'29 1.2
2015-Aug-27 10:32N 39°21' E 003°13'1010.2
2015-Aug-27 09:33N 39°16' E 003°02'5 4.9
2015-Aug-27 08:31N 39°20' E 002°59'0 0.0
2015-Aug-27 07:31N 39°20' E 002°59'0 0.0
2015-Aug-27 06:28N 39°20' E 002°59'0 0.0
2015-Aug-27 05:28N 39°20' E 002°59'0 0.0
2015-Aug-27 04:16N 39°20' E 002°59'0 0.0
2015-Aug-27 03:25N 39°20' E 002°59'0 0.0
2015-Aug-27 02:22N 39°20' E 002°59'0 0.0
2015-Aug-27 01:31N 39°20' E 002°59'0 0.0
2015-Aug-27 00:31N 39°20' E 002°59'0 0.0
2015-Aug-26 23:10N 39°20' E 002°59'0 0.0
2015-Aug-26 22:31N 39°20' E 002°59'0 0.0
2015-Aug-26 20:28N 39°20' E 002°59'0 0.0
2015-Aug-26 19:31N 39°20' E 002°59'0 0.0
2015-Aug-26 18:28N 39°20' E 002°59'0 0.0
2015-Aug-26 17:31N 39°20' E 002°59'0 0.0
2015-Aug-26 16:31N 39°20' E 002°59'0 0.0
2015-Aug-26 15:31N 39°20' E 002°59'0 0.0
2015-Aug-26 14:31N 39°20' E 002°59'0 0.0
2015-Aug-26 13:31N 39°20' E 002°59'0 0.0
2015-Aug-26 12:34N 39°20' E 002°59'7 7.1
2015-Aug-26 11:34N 39°21' E 002°50'1010.2
2015-Aug-26 10:33N 39°29' E 002°41'6 5.5
2015-Aug-26 09:31N 39°34' E 002°38'0 0.0
2015-Aug-26 08:33N 39°34' E 002°38'0 0.0
2015-Aug-26 07:33N 39°34' E 002°38'0 0.0
2015-Aug-26 06:33N 39°34' E 002°38'0 0.0
2015-Aug-26 05:33N 39°34' E 002°38'0 0.0
2015-Aug-26 04:33N 39°34' E 002°38'0 0.0
2015-Aug-26 03:33N 39°34' E 002°38'0 0.0
2015-Aug-26 02:33N 39°34' E 002°38'0 0.0
2015-Aug-26 01:33N 39°34' E 002°38'0 0.0
2015-Aug-26 00:33N 39°34' E 002°38'0 0.0
2015-Aug-25 23:33N 39°34' E 002°38'0 0.0
2015-Aug-25 22:33N 39°34' E 002°38'0 0.0
2015-Aug-25 21:33N 39°34' E 002°38'1 1.5
2015-Aug-25 20:33N 39°32' E 002°38'9 8.9
2015-Aug-25 19:33N 39°29' E 002°27'4 2.7
2015-Aug-25 18:14N 39°32' E 002°25'0 0.1
2015-Aug-25 16:33N 39°32' E 002°25'6 5.9
2015-Aug-25 15:32N 39°37' E 002°22'1010.0
2015-Aug-25 14:29N 39°44' E 002°33'7 8.1
2015-Aug-25 13:34N 39°48' E 002°41'1 0.4
2015-Aug-25 12:19N 39°48' E 002°42'0 0.0
2015-Aug-25 11:25N 39°48' E 002°42'0 0.0
2015-Aug-25 10:31N 39°48' E 002°42'0 0.0
2015-Aug-25 09:07N 39°48' E 002°42'0 0.0
2015-Aug-25 08:31N 39°48' E 002°42'0 0.0
2015-Aug-25 07:31N 39°48' E 002°42'0 0.0
2015-Aug-25 06:31N 39°48' E 002°42'0 0.0
2015-Aug-25 05:31N 39°48' E 002°42'0 0.0
2015-Aug-25 04:31N 39°48' E 002°42'0 0.0
2015-Aug-25 03:28N 39°48' E 002°42'0 0.0
2015-Aug-25 02:28N 39°48' E 002°42'0 0.0
2015-Aug-25 01:28N 39°48' E 002°42'0 0.0
2015-Aug-25 00:31N 39°48' E 002°42'0 0.0
2015-Aug-24 23:31N 39°48' E 002°42'0 0.0
2015-Aug-24 22:28N 39°48' E 002°42'0 0.0
2015-Aug-24 21:31N 39°48' E 002°42'0 0.0
2015-Aug-24 20:31N 39°48' E 002°42'0 0.0
2015-Aug-24 19:31N 39°48' E 002°42'0 0.0
2015-Aug-24 18:31N 39°48' E 002°42'0 0.0
2015-Aug-24 17:33N 39°48' E 002°42'0 0.4
2015-Aug-24 16:31N 39°48' E 002°41'0 0.0
2015-Aug-24 15:31N 39°48' E 002°41'0 0.0
2015-Aug-24 14:31N 39°48' E 002°41'0 0.0
2015-Aug-24 13:31N 39°48' E 002°41'0 0.0
2015-Aug-24 12:31N 39°48' E 002°41'0 0.0
2015-Aug-24 11:31N 39°48' E 002°41'0 0.0
2015-Aug-24 10:25N 39°48' E 002°41'0 0.0
2015-Aug-24 09:31N 39°48' E 002°41'0 0.0
2015-Aug-24 08:25N 39°48' E 002°41'0 0.0
2015-Aug-24 07:31N 39°48' E 002°41'0 0.0
2015-Aug-24 06:31N 39°48' E 002°41'0 0.0
2015-Aug-24 05:28N 39°48' E 002°41'0 0.0
2015-Aug-24 04:25N 39°48' E 002°41'0 0.0
2015-Aug-24 03:31N 39°48' E 002°41'0 0.0
2015-Aug-24 02:31N 39°48' E 002°41'0 0.0
2015-Aug-24 01:28N 39°48' E 002°41'0 0.0
2015-Aug-24 00:31N 39°48' E 002°41'0 0.0
2015-Aug-23 23:31N 39°48' E 002°41'0 0.0
2015-Aug-23 22:31N 39°48' E 002°41'0 0.0
2015-Aug-23 21:31N 39°48' E 002°41'0 0.0
2015-Aug-23 20:31N 39°48' E 002°41'0 0.1
2015-Aug-23 19:22N 39°48' E 002°41'0 0.2
2015-Aug-23 18:28N 39°48' E 002°41'0 0.0
2015-Aug-23 17:28N 39°48' E 002°41'1 1.0
2015-Aug-23 16:32N 39°49' E 002°42'5 1.7
2015-Aug-23 13:34N 39°46' E 002°37'1210.2
2015-Aug-23 12:23N 39°39' E 002°25'6 7.5
2015-Aug-23 11:33N 39°33' E 002°22'0 0.1
2015-Aug-23 10:31N 39°32' E 002°22'0 0.0
2015-Aug-23 08:31N 39°32' E 002°22'0 0.0
2015-Aug-23 07:07N 39°32' E 002°22'0 0.0
2015-Aug-23 06:07N 39°32' E 002°22'0 0.0
2015-Aug-23 05:13N 39°32' E 002°22'0 0.0
2015-Aug-23 03:07N 39°32' E 002°22'0 0.0
2015-Aug-23 02:20N 39°32' E 002°22'0 0.0
2015-Aug-22 22:25N 39°32' E 002°22'0 0.0
2015-Aug-22 20:25N 39°32' E 002°22'0 0.0
2015-Aug-22 17:25N 39°32' E 002°22'2 2.1
2015-Aug-22 16:32N 39°31' E 002°23'8 8.5
2015-Aug-22 15:33N 39°29' E 002°34'5 5.2
2015-Aug-22 14:31N 39°34' E 002°38'0 0.0
2015-Aug-22 13:31N 39°34' E 002°38'0 0.0
2015-Aug-22 12:31N 39°34' E 002°38'0 0.0
2015-Aug-22 11:31N 39°34' E 002°38'0 0.0
2015-Aug-22 10:31N 39°34' E 002°38'0 0.0
2015-Aug-22 09:31N 39°34' E 002°38'0 0.0
2015-Aug-22 08:31N 39°34' E 002°38'0 0.0
2015-Aug-22 07:31N 39°34' E 002°38'0 0.0
2015-Aug-22 06:31N 39°34' E 002°38'0 0.0
2015-Aug-22 05:31N 39°34' E 002°38'0 0.0
2015-Aug-22 04:31N 39°34' E 002°38'0 0.0
2015-Aug-22 03:31N 39°34' E 002°38'0 0.0
2015-Aug-22 02:31N 39°34' E 002°38'0 0.0
2015-Aug-22 01:31N 39°34' E 002°38'0 0.0
2015-Aug-22 00:31N 39°34' E 002°38'0 0.0
2015-Aug-21 23:31N 39°34' E 002°38'0 0.0
2015-Aug-21 22:31N 39°34' E 002°38'0 0.0
2015-Aug-21 21:31N 39°34' E 002°38'0 0.0
2015-Aug-21 20:31N 39°34' E 002°38'0 0.0
2015-Aug-21 19:31N 39°34' E 002°38'0 0.0
2015-Aug-21 18:31N 39°34' E 002°38'0 0.0
2015-Aug-21 17:31N 39°34' E 002°38'0 0.0
2015-Aug-21 16:31N 39°34' E 002°38'0 0.0
2015-Aug-21 15:31N 39°34' E 002°38'  

Dump ship's entire track history